createdAt,value
2022-12-18T00:00:05.323Z,10.93
2022-12-18T00:02:34.592Z,11.07
2022-12-18T00:05:02.698Z,10.15
2022-12-18T00:07:30.048Z,13.13
2022-12-18T00:09:57.801Z,11.10
2022-12-18T00:12:25.239Z,10.18
2022-12-18T00:14:53.157Z,10.00
2022-12-18T00:17:20.564Z,10.98
2022-12-18T00:19:49.846Z,9.65
2022-12-18T00:22:17.272Z,11.88
2022-12-18T00:24:45.174Z,10.77
2022-12-18T00:27:12.622Z,10.00
2022-12-18T00:29:40.520Z,11.73
2022-12-18T00:32:08.173Z,13.90
2022-12-18T00:34:36.067Z,10.57
2022-12-18T00:37:05.113Z,10.52
2022-12-18T00:39:33.240Z,12.30
2022-12-18T00:42:00.764Z,12.20
2022-12-18T00:44:28.661Z,10.27
2022-12-18T00:46:58.354Z,10.23
2022-12-18T00:49:29.465Z,10.52
2022-12-18T00:51:56.951Z,11.93
2022-12-18T00:54:26.763Z,11.35
2022-12-18T00:56:54.216Z,11.57
2022-12-18T00:59:22.362Z,12.48
2022-12-18T01:01:49.938Z,11.05
2022-12-18T01:04:18.092Z,10.02
2022-12-18T01:06:45.781Z,11.25
2022-12-18T01:09:13.826Z,11.77
2022-12-18T01:11:43.041Z,10.73
2022-12-18T01:14:11.008Z,12.93
2022-12-18T01:16:38.527Z,12.05
2022-12-18T01:19:06.427Z,12.18
2022-12-18T01:21:34.538Z,12.05
2022-12-18T01:24:02.740Z,10.95
2022-12-18T01:26:30.278Z,10.88
2022-12-18T01:28:59.666Z,11.95
2022-12-18T01:31:29.091Z,12.20
2022-12-18T01:33:58.004Z,12.85
2022-12-18T01:36:27.765Z,11.27
2022-12-18T01:38:56.583Z,9.63
2022-12-18T01:41:25.995Z,11.70
2022-12-18T01:43:55.715Z,10.68
2022-12-18T01:46:25.624Z,11.93
2022-12-18T01:48:56.804Z,11.10
2022-12-18T01:51:26.239Z,10.77
2022-12-18T01:53:54.397Z,10.10
2022-12-18T01:56:22.988Z,10.38
2022-12-18T01:59:03.158Z,10.52
2022-12-18T02:01:34.040Z,10.43
2022-12-18T02:04:21.950Z,11.73
2022-12-18T02:06:55.376Z,10.05
2022-12-18T02:09:31.836Z,10.77
2022-12-18T02:12:06.303Z,11.70
2022-12-18T02:14:39.720Z,11.18
2022-12-18T02:17:16.085Z,10.65
2022-12-18T02:19:56.156Z,11.23
2022-12-18T02:22:36.384Z,10.02
2022-12-18T02:25:21.860Z,9.52
2022-12-18T02:27:53.645Z,10.20
2022-12-18T02:30:22.878Z,11.32
2022-12-18T02:32:53.790Z,9.13
2022-12-18T02:35:24.891Z,7.32
2022-12-18T02:37:56.431Z,7.78
2022-12-18T02:40:27.602Z,6.70
2022-12-18T02:43:03.066Z,6.38
2022-12-18T02:45:30.955Z,6.13
2022-12-18T02:47:58.375Z,6.57
2022-12-18T02:50:35.803Z,6.97
2022-12-18T02:53:15.559Z,7.85
2022-12-18T02:55:56.268Z,7.13
2022-12-18T02:58:31.745Z,7.18
2022-12-18T03:01:03.993Z,6.53
2022-12-18T03:03:35.087Z,6.72
2022-12-18T03:06:07.035Z,7.82
2022-12-18T03:08:39.303Z,7.18
2022-12-18T03:11:09.898Z,6.72
2022-12-18T03:13:44.569Z,6.80
2022-12-18T03:16:16.241Z,6.82
2022-12-18T03:18:47.712Z,6.63
2022-12-18T03:21:19.940Z,6.65
2022-12-18T03:23:50.920Z,6.53
2022-12-18T03:26:23.702Z,6.95
2022-12-18T03:28:55.827Z,6.93
2022-12-18T03:31:27.279Z,7.38
2022-12-18T03:33:57.286Z,5.90
2022-12-18T03:36:25.650Z,6.25
2022-12-18T03:38:53.652Z,6.53
2022-12-18T03:41:32.767Z,8.48
2022-12-18T03:44:10.012Z,6.18
2022-12-18T03:46:48.529Z,6.88
2022-12-18T03:49:22.599Z,6.43
2022-12-18T03:51:55.870Z,6.90
2022-12-18T03:54:24.728Z,5.55
2022-12-18T03:56:58.435Z,7.05
2022-12-18T03:59:30.073Z,6.68
2022-12-18T04:02:00.713Z,8.02
2022-12-18T04:04:29.937Z,6.50
2022-12-18T04:06:59.446Z,7.90
2022-12-18T04:09:27.221Z,6.63
2022-12-18T04:11:55.566Z,6.97
2022-12-18T04:14:23.057Z,6.97
2022-12-18T04:16:52.326Z,7.43
2022-12-18T04:19:19.783Z,7.47
2022-12-18T04:21:47.771Z,7.13
2022-12-18T04:24:15.184Z,6.90
2022-12-18T04:26:43.074Z,8.63
2022-12-18T04:29:10.471Z,3.50
2022-12-18T04:31:38.803Z,8.50
2022-12-18T04:34:07.862Z,6.45
2022-12-18T04:36:35.723Z,9.32
2022-12-18T04:39:03.224Z,9.00
2022-12-18T04:41:31.129Z,4.55
2022-12-18T04:43:58.580Z,8.15
2022-12-18T04:46:27.196Z,6.68
2022-12-18T04:48:54.534Z,7.28
2022-12-18T04:51:26.611Z,7.80
2022-12-18T04:53:54.499Z,7.55
2022-12-18T04:56:22.754Z,7.95
2022-12-18T04:58:50.334Z,6.78
2022-12-18T05:01:19.471Z,8.10
2022-12-18T05:03:47.277Z,7.00
2022-12-18T05:06:15.406Z,8.05
2022-12-18T05:08:44.271Z,9.60
2022-12-18T05:11:14.337Z,6.65
2022-12-18T05:13:42.081Z,8.70
2022-12-18T05:16:11.293Z,10.02
2022-12-18T05:18:38.834Z,9.02
2022-12-18T05:21:06.899Z,7.00
2022-12-18T05:23:34.341Z,8.05
2022-12-18T05:26:05.560Z,8.63
2022-12-18T05:28:35.248Z,9.25
2022-12-18T05:31:04.846Z,6.70
2022-12-18T05:33:34.253Z,8.10
2022-12-18T05:36:03.393Z,9.70
2022-12-18T05:38:32.811Z,9.07
2022-12-18T05:41:00.760Z,7.90
2022-12-18T05:43:29.788Z,8.10
2022-12-18T05:45:57.838Z,10.63
2022-12-18T05:48:25.463Z,9.63
2022-12-18T05:50:53.505Z,10.60
2022-12-18T05:53:22.087Z,10.07
2022-12-18T05:55:49.984Z,11.57
2022-12-18T05:58:17.597Z,8.52
2022-12-18T06:00:47.298Z,10.25
2022-12-18T06:03:15.553Z,9.98
2022-12-18T06:05:45.429Z,10.27
2022-12-18T06:08:13.622Z,10.15
2022-12-18T06:10:42.178Z,11.18
2022-12-18T06:13:09.860Z,10.55
2022-12-18T06:15:38.573Z,13.38
2022-12-18T06:18:07.828Z,12.38
2022-12-18T06:20:35.916Z,14.43
2022-12-18T06:23:03.515Z,12.63
2022-12-18T06:25:31.753Z,13.48
2022-12-18T06:27:59.118Z,12.27
2022-12-18T06:30:27.067Z,13.52
2022-12-18T06:32:56.734Z,12.43
2022-12-18T06:35:26.365Z,11.80
2022-12-18T06:37:53.713Z,7.88
2022-12-18T06:40:21.867Z,9.15
2022-12-18T06:42:49.709Z,14.80
2022-12-18T06:45:20.099Z,8.48
2022-12-18T06:47:47.732Z,11.20
2022-12-18T06:50:15.966Z,11.25
2022-12-18T06:52:45.004Z,10.93
2022-12-18T06:55:12.867Z,11.40
2022-12-18T06:57:40.308Z,13.77
2022-12-18T07:00:09.305Z,11.20
2022-12-18T07:02:37.039Z,12.68
2022-12-18T07:05:10.540Z,10.95
2022-12-18T07:07:38.489Z,9.20
2022-12-18T07:10:08.577Z,8.07
2022-12-18T07:12:35.892Z,7.00
2022-12-18T07:15:04.579Z,11.80
2022-12-18T07:17:32.008Z,5.47
2022-12-18T07:19:59.795Z,8.98
2022-12-18T07:22:27.511Z,10.57
2022-12-18T07:24:55.527Z,10.38
2022-12-18T07:27:24.721Z,8.52
2022-12-18T07:29:52.915Z,9.20
2022-12-18T07:32:20.364Z,8.18
2022-12-18T07:34:48.421Z,7.95
2022-12-18T07:37:15.816Z,8.20
2022-12-18T07:39:43.946Z,7.80
2022-12-18T07:42:11.546Z,10.35
2022-12-18T07:44:40.891Z,6.15
2022-12-18T07:47:12.005Z,11.27
2022-12-18T07:49:40.374Z,11.13
2022-12-18T07:52:07.866Z,9.82
2022-12-18T07:54:36.162Z,10.27
2022-12-18T07:57:03.790Z,10.98
2022-12-18T07:59:31.619Z,10.43
2022-12-18T08:02:00.974Z,8.38
2022-12-18T08:04:28.946Z,11.98
2022-12-18T08:06:56.791Z,9.15
2022-12-18T08:09:24.514Z,10.88
2022-12-18T08:11:52.135Z,9.73
2022-12-18T08:14:20.303Z,11.18
2022-12-18T08:16:47.915Z,10.98
2022-12-18T08:19:17.614Z,11.18
2022-12-18T08:21:47.966Z,10.32
2022-12-18T08:24:16.048Z,9.32
2022-12-18T08:26:51.814Z,8.50
2022-12-18T08:29:29.042Z,10.13
2022-12-18T08:31:56.797Z,11.68
2022-12-18T08:34:26.177Z,9.20
2022-12-18T08:36:53.571Z,9.80
2022-12-18T08:39:21.531Z,8.00
2022-12-18T08:41:49.062Z,9.93
2022-12-18T08:44:16.869Z,9.98
2022-12-18T08:46:44.982Z,13.43
2022-12-18T08:49:13.336Z,10.13
2022-12-18T08:51:42.482Z,11.43
2022-12-18T08:54:12.642Z,9.15
2022-12-18T08:56:40.099Z,11.48
2022-12-18T08:59:08.193Z,10.25
2022-12-18T09:01:38.877Z,13.07
2022-12-18T09:04:06.959Z,3.78
2022-12-18T09:06:35.832Z,12.38
2022-12-18T09:09:06.765Z,11.25
2022-12-18T09:11:34.201Z,10.00
2022-12-18T09:14:02.651Z,13.20
2022-12-18T09:16:32.263Z,7.55
2022-12-18T09:19:01.130Z,12.40
2022-12-18T09:21:30.880Z,11.45
2022-12-18T09:23:59.538Z,9.63
2022-12-18T09:26:28.827Z,12.88
2022-12-18T09:28:57.240Z,11.38
2022-12-18T09:31:25.983Z,11.40
2022-12-18T09:33:55.757Z,12.55
2022-12-18T09:36:26.159Z,9.85
2022-12-18T09:38:54.223Z,9.68
2022-12-18T09:41:40.315Z,10.63
2022-12-18T09:44:17.268Z,12.45
2022-12-18T09:46:48.389Z,11.65
2022-12-18T09:49:20.066Z,13.45
2022-12-18T09:51:52.512Z,12.02
2022-12-18T09:56:54.194Z,14.18
2022-12-18T09:59:27.666Z,9.95
2022-12-18T10:02:01.444Z,10.23
2022-12-18T10:04:33.302Z,8.45
2022-12-18T10:07:09.388Z,10.63
2022-12-18T10:09:42.574Z,7.55
2022-12-18T10:12:23.618Z,11.27
2022-12-18T10:14:58.416Z,11.20
2022-12-18T10:17:33.474Z,15.32
2022-12-18T10:20:05.594Z,9.50
2022-12-18T10:22:47.618Z,11.43
2022-12-18T10:25:23.309Z,8.25
2022-12-18T10:27:57.392Z,9.65
2022-12-18T10:30:26.670Z,12.90
2022-12-18T10:32:54.093Z,13.00
2022-12-18T10:35:24.860Z,11.05
2022-12-18T10:38:07.563Z,14.63
2022-12-18T10:40:50.762Z,12.20
2022-12-18T10:43:23.918Z,10.65
2022-12-18T10:46:17.035Z,7.38
2022-12-18T10:48:54.824Z,10.73
2022-12-18T10:51:25.881Z,11.52
2022-12-18T10:53:57.319Z,12.13
2022-12-18T10:56:27.397Z,15.27
2022-12-18T10:59:01.803Z,11.80
2022-12-18T11:01:45.917Z,13.52
2022-12-18T11:04:18.679Z,14.48
2022-12-18T11:09:26.523Z,11.32
2022-12-18T11:11:56.962Z,15.23
2022-12-18T11:14:28.902Z,10.40
2022-12-18T11:19:54.269Z,14.73
2022-12-18T11:22:25.344Z,13.05
2022-12-18T11:25:30.091Z,14.75
2022-12-18T11:27:50.502Z,8.43
2022-12-18T11:30:25.808Z,7.22
2022-12-18T11:32:58.263Z,13.65
2022-12-18T11:35:36.559Z,6.60
2022-12-18T11:38:13.515Z,12.60
2022-12-18T11:40:46.305Z,4.97
2022-12-18T11:45:53.699Z,12.93
2022-12-18T11:48:26.545Z,6.63
2022-12-18T11:50:56.049Z,14.77
2022-12-18T11:53:25.863Z,10.25
2022-12-18T11:56:05.996Z,11.50
2022-12-18T11:58:56.552Z,10.82
2022-12-18T12:01:44.018Z,14.15
2022-12-18T12:04:42.845Z,5.72
2022-12-18T12:07:26.021Z,11.13
2022-12-18T12:10:07.118Z,13.43
2022-12-18T12:12:49.533Z,11.65
2022-12-18T12:15:38.624Z,10.85
2022-12-18T12:18:20.137Z,14.13
2022-12-18T12:20:59.156Z,10.63
2022-12-18T12:23:35.406Z,6.72
2022-12-18T12:26:08.974Z,9.18
2022-12-18T12:31:24.735Z,5.97
2022-12-18T12:34:02.726Z,7.22
2022-12-18T12:36:42.302Z,10.95
2022-12-18T12:39:17.532Z,11.25
2022-12-18T12:41:47.659Z,8.15
2022-12-18T12:44:20.218Z,10.52
2022-12-18T12:46:49.645Z,8.15
2022-12-18T12:49:28.776Z,12.57
2022-12-18T12:52:07.121Z,11.13
2022-12-18T12:54:36.404Z,6.03
2022-12-18T12:57:14.028Z,12.82
2022-12-18T12:59:52.345Z,10.35
2022-12-18T13:02:29.958Z,13.45
2022-12-18T13:05:08.724Z,13.20
2022-12-18T13:07:40.930Z,12.30
2022-12-18T13:10:33.808Z,9.60
2022-12-18T13:13:04.396Z,8.27
2022-12-18T13:15:40.048Z,15.00
2022-12-18T13:18:17.025Z,9.95
2022-12-18T13:20:53.075Z,13.27
2022-12-18T13:23:32.855Z,12.82
2022-12-18T13:26:28.139Z,13.70
2022-12-18T13:29:02.445Z,15.80
2022-12-18T13:31:59.315Z,14.52
2022-12-18T13:34:30.102Z,16.02
2022-12-18T13:37:37.017Z,11.65
2022-12-18T13:40:41.238Z,15.07
2022-12-18T13:43:33.931Z,12.38
2022-12-18T13:46:18.885Z,14.55
2022-12-18T13:48:56.234Z,10.07
2022-12-18T13:51:25.095Z,15.55
2022-12-18T13:53:55.681Z,13.32
2022-12-18T13:56:25.753Z,16.17
2022-12-18T13:59:15.423Z,12.07
2022-12-18T14:01:53.688Z,12.98
2022-12-18T14:04:24.976Z,14.15
2022-12-18T14:06:56.633Z,13.57
2022-12-18T14:09:27.783Z,12.95
2022-12-18T14:11:58.381Z,12.88
2022-12-18T14:14:32.468Z,14.93
2022-12-18T14:17:03.285Z,11.07
2022-12-18T14:19:33.126Z,14.02
2022-12-18T14:22:01.943Z,13.55
2022-12-18T14:24:29.678Z,15.00
2022-12-18T14:27:20.574Z,14.98
2022-12-18T14:29:48.150Z,14.38
2022-12-18T14:32:19.225Z,14.50
2022-12-18T14:34:48.309Z,11.98
2022-12-18T14:37:21.271Z,17.10
2022-12-18T14:39:56.766Z,14.75
2022-12-18T14:42:25.764Z,12.00
2022-12-18T14:45:14.133Z,9.52
2022-12-18T14:47:46.031Z,11.25
2022-12-18T14:50:15.371Z,13.02
2022-12-18T14:52:43.872Z,16.10
2022-12-18T14:55:17.183Z,13.00
2022-12-18T14:57:45.796Z,15.40
2022-12-18T15:00:18.416Z,15.13
2022-12-18T15:02:51.231Z,16.92
2022-12-18T15:05:21.429Z,17.02
2022-12-18T15:07:53.140Z,17.67
2022-12-18T15:10:23.238Z,11.52
2022-12-18T15:13:09.738Z,13.50
2022-12-18T15:15:49.874Z,14.90
2022-12-18T15:18:25.511Z,14.35
2022-12-18T15:20:56.432Z,16.77
2022-12-18T15:23:27.711Z,13.15
2022-12-18T15:26:01.065Z,17.67
2022-12-18T15:28:33.757Z,14.93
2022-12-18T15:31:21.449Z,13.15
2022-12-18T15:34:12.139Z,6.57
2022-12-18T15:36:41.192Z,15.15
2022-12-18T15:39:14.120Z,13.48
2022-12-18T15:41:43.511Z,9.98
2022-12-18T15:44:25.491Z,11.98
2022-12-18T15:46:54.061Z,8.68
2022-12-18T15:49:24.477Z,15.80
2022-12-18T15:51:54.909Z,15.15
2022-12-18T15:54:25.587Z,9.80
2022-12-18T15:56:54.438Z,16.65
2022-12-18T15:59:25.231Z,11.40
2022-12-18T16:01:55.177Z,11.43
2022-12-18T16:04:25.546Z,15.15
2022-12-18T16:07:14.568Z,12.73
2022-12-18T16:09:47.599Z,13.00
2022-12-18T16:12:18.783Z,19.27
2022-12-18T16:14:49.602Z,15.80
2022-12-18T16:17:20.519Z,14.95
2022-12-18T16:19:53.236Z,15.70
2022-12-18T16:22:24.801Z,16.83
2022-12-18T16:24:58.959Z,19.70
2022-12-18T16:27:30.077Z,15.98
2022-12-18T16:30:01.831Z,18.98
2022-12-18T16:32:30.652Z,14.52
2022-12-18T16:35:03.127Z,20.85
2022-12-18T16:37:32.219Z,26.05
2022-12-18T16:40:01.534Z,20.17
2022-12-18T16:42:32.284Z,21.95
2022-12-18T16:45:04.167Z,22.25
2022-12-18T16:47:35.011Z,18.85
2022-12-18T16:50:10.325Z,21.38
2022-12-18T16:52:39.150Z,23.10
2022-12-18T16:55:10.075Z,16.85
2022-12-18T16:57:39.820Z,15.65
2022-12-18T17:00:11.131Z,22.88
2022-12-18T17:02:40.578Z,24.52
2022-12-18T17:05:12.561Z,23.98
2022-12-18T17:07:42.542Z,22.23
2022-12-18T17:10:13.262Z,8.98
2022-12-18T17:12:42.324Z,15.77
2022-12-18T17:15:15.866Z,20.48
2022-12-18T17:17:44.723Z,12.98
2022-12-18T17:20:15.711Z,15.95
2022-12-18T17:22:43.892Z,24.05
2022-12-18T17:25:12.505Z,13.60
2022-12-18T17:27:40.235Z,17.77
2022-12-18T17:30:16.950Z,16.27
2022-12-18T17:32:45.009Z,20.70
2022-12-18T17:35:14.748Z,23.65
2022-12-18T17:37:42.406Z,20.02
2022-12-18T17:40:12.133Z,17.85
2022-12-18T17:42:41.227Z,19.85
2022-12-18T17:45:12.321Z,17.77
2022-12-18T17:47:40.942Z,19.20
2022-12-18T17:50:10.929Z,18.35
2022-12-18T17:52:41.241Z,13.77
2022-12-18T17:55:10.933Z,20.30
2022-12-18T17:57:38.861Z,19.98
2022-12-18T18:00:11.059Z,18.50
2022-12-18T18:02:39.308Z,18.20
2022-12-18T18:05:09.384Z,20.15
2022-12-18T18:07:40.758Z,11.68
2022-12-18T18:10:10.022Z,15.38
2022-12-18T18:12:39.581Z,12.48
2022-12-18T18:15:10.515Z,16.42
2022-12-18T18:17:38.984Z,9.90
2022-12-18T18:20:08.265Z,24.88
2022-12-18T18:22:36.192Z,18.08
2022-12-18T18:25:06.810Z,16.92
2022-12-18T18:27:38.680Z,19.98
2022-12-18T18:30:08.653Z,16.35
2022-12-18T18:32:36.423Z,18.83
2022-12-18T18:35:05.320Z,11.82
2022-12-18T18:37:32.984Z,17.92
2022-12-18T18:40:04.185Z,18.60
2022-12-18T18:42:33.499Z,10.00
2022-12-18T18:45:05.174Z,19.35
2022-12-18T18:47:32.908Z,19.15
2022-12-18T18:50:00.942Z,16.67
2022-12-18T18:52:28.644Z,21.45
2022-12-18T18:55:12.929Z,22.45
2022-12-18T18:57:43.151Z,12.85
2022-12-18T19:00:12.618Z,13.57
2022-12-18T19:02:40.678Z,21.58
2022-12-18T19:05:09.416Z,19.77
2022-12-18T19:07:37.502Z,13.85
2022-12-18T19:10:06.996Z,24.83
2022-12-18T19:12:35.315Z,24.38
2022-12-18T19:15:08.065Z,15.63
2022-12-18T19:17:35.702Z,19.52
2022-12-18T19:20:04.955Z,14.27
2022-12-18T19:22:32.967Z,20.92
2022-12-18T19:25:00.882Z,13.98
2022-12-18T19:27:28.591Z,21.85
2022-12-18T19:29:56.980Z,19.63
2022-12-18T19:32:26.079Z,9.40
2022-12-18T19:34:54.267Z,20.20
2022-12-18T19:37:22.025Z,13.55
2022-12-18T19:39:50.305Z,17.48
2022-12-18T19:42:24.907Z,23.10
2022-12-18T19:44:54.546Z,19.38
2022-12-18T19:47:22.095Z,21.48
2022-12-18T19:49:51.605Z,11.00
2022-12-18T19:52:19.555Z,10.60
2022-12-18T19:54:48.026Z,17.58
2022-12-18T19:57:15.986Z,11.55
2022-12-18T19:59:44.447Z,9.05
2022-12-18T20:02:14.169Z,8.13
2022-12-18T20:04:42.495Z,19.00
2022-12-18T20:07:11.467Z,18.30
2022-12-18T20:09:39.753Z,15.27
2022-12-18T20:12:08.714Z,24.88
2022-12-18T20:14:36.776Z,18.00
2022-12-18T20:17:04.351Z,8.88
2022-12-18T20:19:34.162Z,9.60
2022-12-18T20:22:02.382Z,15.27
2022-12-18T20:24:34.483Z,17.08
2022-12-18T20:27:02.468Z,15.77
2022-12-18T20:29:30.370Z,12.07
2022-12-18T20:31:58.562Z,14.02
2022-12-18T20:34:26.864Z,20.60
2022-12-18T20:36:54.829Z,17.23
2022-12-18T20:39:23.861Z,16.98
2022-12-18T20:41:53.856Z,15.65
2022-12-18T20:44:24.008Z,14.48
2022-12-18T20:46:53.491Z,17.27
2022-12-18T20:49:21.909Z,16.02
2022-12-18T20:51:53.099Z,23.67
2022-12-18T20:54:22.151Z,23.23
2022-12-18T20:56:50.115Z,20.38
2022-12-18T20:59:19.637Z,13.73
2022-12-18T21:01:48.163Z,17.30
2022-12-18T21:04:18.428Z,15.68
2022-12-18T21:06:51.433Z,15.43
2022-12-18T21:09:21.031Z,15.63
2022-12-18T21:11:48.724Z,14.85
2022-12-18T21:14:18.425Z,15.90
2022-12-18T21:16:48.310Z,14.07
2022-12-18T21:19:17.892Z,13.85
2022-12-18T21:21:46.095Z,17.23
2022-12-18T21:24:14.503Z,21.08
2022-12-18T21:26:45.730Z,17.95
2022-12-18T21:29:15.645Z,17.20
2022-12-18T21:31:44.215Z,9.68
2022-12-18T21:34:19.126Z,15.88
2022-12-18T21:36:47.262Z,18.17
2022-12-18T21:39:16.039Z,17.98
2022-12-18T21:41:43.868Z,17.70
2022-12-18T21:44:13.246Z,9.93
2022-12-18T21:46:42.960Z,17.25
2022-12-18T21:49:13.990Z,12.98
2022-12-18T21:51:41.582Z,15.38
2022-12-18T21:54:09.390Z,13.38
2022-12-18T21:56:47.346Z,11.88
2022-12-18T21:59:16.768Z,17.63
2022-12-18T22:01:44.512Z,13.93
2022-12-18T22:04:14.943Z,12.07
2022-12-18T22:06:43.023Z,5.88
2022-12-18T22:09:13.155Z,9.88
2022-12-18T22:11:40.895Z,15.98
2022-12-18T22:14:09.198Z,15.88
2022-12-18T22:16:36.906Z,16.88
2022-12-18T22:19:06.798Z,15.27
2022-12-18T22:21:37.729Z,14.32
2022-12-18T22:24:07.626Z,13.32
2022-12-18T22:26:40.102Z,16.90
2022-12-18T22:29:13.225Z,21.75
2022-12-18T22:31:41.227Z,13.40
2022-12-18T22:34:09.568Z,16.85
2022-12-18T22:36:40.275Z,16.70
2022-12-18T22:39:11.964Z,10.75
2022-12-18T22:41:39.459Z,15.13
2022-12-18T22:44:10.431Z,10.80
2022-12-18T22:46:45.295Z,13.23
2022-12-18T22:49:15.479Z,11.82
2022-12-18T22:51:44.908Z,10.85
2022-12-18T22:54:13.063Z,12.65
2022-12-18T22:56:40.678Z,8.43
2022-12-18T22:59:14.661Z,13.05
2022-12-18T23:01:42.268Z,8.73
2022-12-18T23:04:14.577Z,17.65
2022-12-18T23:06:42.915Z,17.20
2022-12-18T23:09:17.952Z,19.20
2022-12-18T23:11:45.802Z,8.35
2022-12-18T23:14:14.167Z,15.02
2022-12-18T23:16:41.680Z,12.55
2022-12-18T23:19:11.563Z,12.70
2022-12-18T23:21:39.254Z,15.88
2022-12-18T23:24:07.983Z,14.38
2022-12-18T23:26:36.833Z,16.30
2022-12-18T23:29:05.090Z,10.13
2022-12-18T23:31:34.440Z,14.10
2022-12-18T23:34:03.306Z,13.70
2022-12-18T23:36:37.620Z,17.05
2022-12-18T23:39:22.358Z,10.40
2022-12-18T23:41:59.255Z,9.95
2022-12-18T23:44:27.473Z,11.68
2022-12-18T23:46:55.599Z,8.02
2022-12-18T23:49:23.910Z,10.02
2022-12-18T23:51:54.237Z,10.15
2022-12-18T23:54:33.070Z,14.63
2022-12-18T23:57:02.960Z,9.30
2022-12-18T23:59:31.214Z,6.22
